createdAt,value
2023-01-07T00:02:12.773Z,97344.50
2023-01-07T00:04:42.289Z,97360.34
2023-01-07T00:07:11.888Z,97388.09
2023-01-07T00:09:40.025Z,97429.75
2023-01-07T00:12:08.192Z,97439.34
2023-01-07T00:14:36.215Z,97463.78
2023-01-07T00:17:04.236Z,97477.06
2023-01-07T00:19:32.284Z,97498.97
2023-01-07T00:22:01.750Z,97517.81
2023-01-07T00:24:30.190Z,97550.00
2023-01-07T00:26:58.212Z,97573.41
2023-01-07T00:29:26.158Z,97590.91
2023-01-07T00:31:55.134Z,97597.66
2023-01-07T00:34:24.256Z,97612.84
2023-01-07T00:37:12.315Z,97619.06
2023-01-07T00:39:42.160Z,97628.50
2023-01-07T00:42:27.644Z,97630.84
2023-01-07T00:44:55.662Z,97612.16
2023-01-07T00:47:23.747Z,97609.63
2023-01-07T00:49:51.808Z,97617.53
2023-01-07T00:52:20.188Z,97608.78
2023-01-07T00:54:49.887Z,97599.34
2023-01-07T00:57:18.042Z,97596.66
2023-01-07T00:59:46.057Z,97596.97
2023-01-07T01:02:14.127Z,97587.53
2023-01-07T01:04:42.180Z,97597.31
2023-01-07T01:07:10.341Z,97590.25
2023-01-07T01:09:38.345Z,97590.09
2023-01-07T01:12:07.960Z,97578.63
2023-01-07T01:14:36.082Z,97581.81
2023-01-07T01:17:04.168Z,97586.88
2023-01-07T01:19:32.280Z,97587.53
2023-01-07T01:22:00.415Z,97591.09
2023-01-07T01:24:28.468Z,97597.31
2023-01-07T01:26:56.452Z,97604.06
2023-01-07T01:29:25.958Z,97606.09
2023-01-07T01:31:54.337Z,97607.75
2023-01-07T01:34:22.787Z,97618.88
2023-01-07T01:36:50.773Z,97640.97
2023-01-07T01:39:20.407Z,97645.69
2023-01-07T01:41:48.423Z,97662.72
2023-01-07T01:44:48.053Z,97657.47
2023-01-07T01:47:26.487Z,97657.13
2023-01-07T01:50:00.870Z,97663.19
2023-01-07T01:52:39.024Z,97655.09
2023-01-07T01:55:10.432Z,97649.03
2023-01-07T01:57:40.166Z,97649.72
2023-01-07T02:00:11.588Z,97664.72
2023-01-07T02:02:48.205Z,97661.84
2023-01-07T02:05:17.471Z,97659.81
2023-01-07T02:07:45.586Z,97655.59
2023-01-07T02:10:17.074Z,97655.28
2023-01-07T02:12:57.164Z,97660.31
2023-01-07T02:15:34.529Z,97663.38
2023-01-07T02:18:29.141Z,97654.78
2023-01-07T02:21:17.720Z,97664.72
2023-01-07T02:24:29.443Z,97657.13
2023-01-07T02:27:21.191Z,97671.97
2023-01-07T02:30:15.732Z,97677.53
2023-01-07T02:33:10.188Z,97681.22
2023-01-07T02:35:51.057Z,97687.25
2023-01-07T02:38:28.362Z,97703.91
2023-01-07T02:41:04.551Z,97715.19
2023-01-07T02:43:42.394Z,97710.81
2023-01-07T02:46:20.648Z,97725.97
2023-01-07T02:48:50.417Z,97725.16
2023-01-07T02:51:18.567Z,97721.78
2023-01-07T02:53:49.704Z,97724.97
2023-01-07T02:56:30.810Z,97719.41
2023-01-07T02:59:19.051Z,97716.53
2023-01-07T03:02:14.158Z,97710.81
2023-01-07T03:04:59.131Z,97721.06
2023-01-07T03:07:37.104Z,97717.69
2023-01-07T03:10:12.585Z,97734.38
2023-01-07T03:12:46.385Z,97737.19
2023-01-07T03:15:19.436Z,97724.44
2023-01-07T03:17:54.810Z,97726.31
2023-01-07T03:20:26.015Z,97719.88
2023-01-07T03:22:54.512Z,97730.47
2023-01-07T03:25:24.271Z,97719.69
2023-01-07T03:27:54.719Z,97705.44
2023-01-07T03:30:25.119Z,97708.25
2023-01-07T03:33:01.097Z,97703.72
2023-01-07T03:35:34.010Z,97700.19
2023-01-07T03:38:05.580Z,97700.53
2023-01-07T03:40:33.794Z,97708.41
2023-01-07T03:43:00.696Z,97709.59
2023-01-07T03:45:29.749Z,97697.16
2023-01-07T03:48:01.101Z,97687.22
2023-01-07T03:50:38.714Z,97688.06
2023-01-07T03:53:07.772Z,97702.84
2023-01-07T03:55:37.945Z,97717.84
2023-01-07T03:58:06.203Z,97711.78
2023-01-07T04:00:34.261Z,97709.59
2023-01-07T04:03:12.449Z,97716.44
2023-01-07T04:05:45.127Z,97719.31
2023-01-07T04:08:14.092Z,97727.06
2023-01-07T04:10:42.951Z,97727.72
2023-01-07T04:13:12.876Z,97736.28
2023-01-07T04:15:44.725Z,97731.41
2023-01-07T04:18:13.385Z,97732.44
2023-01-07T04:20:41.264Z,97741.31
2023-01-07T04:23:10.714Z,97745.34
2023-01-07T04:25:38.779Z,97730.22
2023-01-07T04:28:10.265Z,97719.66
2023-01-07T04:30:38.883Z,97718.63
2023-01-07T04:33:08.002Z,97711.91
2023-01-07T04:35:36.484Z,97724.16
2023-01-07T04:38:04.668Z,97715.25
2023-01-07T04:40:34.318Z,97735.25
2023-01-07T04:43:03.996Z,97723.03
2023-01-07T04:45:32.546Z,97709.38
2023-01-07T04:48:02.098Z,97705.16
2023-01-07T04:50:30.499Z,97708.03
2023-01-07T04:52:59.114Z,97725.50
2023-01-07T04:55:28.303Z,97717.09
2023-01-07T04:57:59.009Z,97719.13
2023-01-07T05:00:28.916Z,97706.22
2023-01-07T05:02:56.972Z,97714.72
2023-01-07T05:05:25.140Z,97713.34
2023-01-07T05:07:54.007Z,97734.25
2023-01-07T05:10:24.147Z,97717.25
2023-01-07T05:12:53.853Z,97708.84
2023-01-07T05:15:25.063Z,97704.97
2023-01-07T05:17:54.916Z,97708.34
2023-01-07T05:20:24.229Z,97710.16
2023-01-07T05:22:53.095Z,97715.03
2023-01-07T05:25:21.241Z,97694.56
2023-01-07T05:27:49.219Z,97697.06
2023-01-07T05:30:17.916Z,97716.88
2023-01-07T05:32:48.429Z,97708.63
2023-01-07T05:35:16.640Z,97714.03
2023-01-07T05:37:44.737Z,97731.19
2023-01-07T05:40:14.062Z,97735.88
2023-01-07T05:42:43.768Z,97739.56
2023-01-07T05:45:13.013Z,97734.72
2023-01-07T05:47:40.980Z,97724.28
2023-01-07T05:50:10.888Z,97734.31
2023-01-07T05:52:38.889Z,97748.09
2023-01-07T05:55:08.572Z,97744.22
2023-01-07T05:57:36.556Z,97748.22
2023-01-07T06:00:05.842Z,97752.59
2023-01-07T06:02:40.106Z,97761.19
2023-01-07T06:05:10.768Z,97754.06
2023-01-07T06:07:38.896Z,97762.34
2023-01-07T06:10:07.727Z,97764.97
2023-01-07T06:12:35.740Z,97776.00
2023-01-07T06:15:03.663Z,97772.50
2023-01-07T06:17:31.749Z,97776.97
2023-01-07T06:19:59.768Z,97776.28
2023-01-07T06:22:29.212Z,97774.91
2023-01-07T06:24:57.214Z,97773.94
2023-01-07T06:27:25.231Z,97777.25
2023-01-07T06:29:53.263Z,97774.00
2023-01-07T06:32:21.173Z,97771.88
2023-01-07T06:34:49.158Z,97771.31
2023-01-07T06:37:18.165Z,97783.25
2023-01-07T06:39:47.782Z,97774.19
2023-01-07T06:42:15.966Z,97762.75
2023-01-07T06:44:43.944Z,97757.41
2023-01-07T06:47:12.380Z,97756.03
2023-01-07T06:49:40.380Z,97750.88
2023-01-07T06:52:08.456Z,97751.75
2023-01-07T06:54:36.687Z,97757.59
2023-01-07T06:57:06.446Z,97745.56
2023-01-07T06:59:34.498Z,97737.41
2023-01-07T07:02:02.634Z,97725.22
2023-01-07T07:04:30.629Z,97727.25
2023-01-07T07:06:58.657Z,97720.06
2023-01-07T07:09:26.710Z,97723.59
2023-01-07T07:11:54.697Z,97722.09
2023-01-07T07:14:24.374Z,97728.00
2023-01-07T07:16:52.447Z,97733.88
2023-01-07T07:19:20.442Z,97729.03
2023-01-07T07:21:48.870Z,97725.00
2023-01-07T07:24:16.960Z,97719.31
2023-01-07T07:26:44.937Z,97722.69
2023-01-07T07:29:13.410Z,97720.53
2023-01-07T07:31:43.025Z,97716.34
2023-01-07T07:34:11.483Z,97715.50
2023-01-07T07:36:39.429Z,97708.31
2023-01-07T07:39:07.551Z,97705.44
2023-01-07T07:41:35.622Z,97709.97
2023-01-07T07:44:08.367Z,97705.63
2023-01-07T07:46:36.594Z,97701.28
2023-01-07T07:49:06.594Z,97710.38
2023-01-07T07:51:34.594Z,97716.78
2023-01-07T07:54:02.695Z,97721.19
2023-01-07T07:56:30.961Z,97713.06
2023-01-07T07:58:59.096Z,97732.75
2023-01-07T08:01:28.057Z,97731.59
2023-01-07T08:03:56.219Z,97744.06
2023-01-07T08:06:25.815Z,97754.50
2023-01-07T08:08:53.829Z,97763.22
2023-01-07T08:11:22.288Z,97763.25
2023-01-07T08:13:50.376Z,97778.03
2023-01-07T08:16:18.417Z,97781.72
2023-01-07T08:18:47.064Z,97791.13
2023-01-07T08:21:15.388Z,97796.91
2023-01-07T08:23:45.155Z,97792.59
2023-01-07T08:26:14.569Z,97810.06
2023-01-07T08:28:45.116Z,97823.81
2023-01-07T08:31:14.590Z,97820.97
2023-01-07T08:33:42.810Z,97830.28
2023-01-07T08:36:22.085Z,97839.34
2023-01-07T08:38:53.774Z,97856.88
2023-01-07T08:41:23.764Z,97854.22
2023-01-07T08:43:53.078Z,97857.91
2023-01-07T08:46:21.511Z,97868.34
2023-01-07T08:48:49.918Z,97865.66
2023-01-07T08:51:18.398Z,97866.72
2023-01-07T08:53:47.973Z,97891.63
2023-01-07T08:56:17.860Z,97923.44
2023-01-07T08:58:48.690Z,97957.13
2023-01-07T09:01:18.463Z,97968.84
2023-01-07T09:03:47.863Z,98010.00
2023-01-07T09:06:19.335Z,98032.41
2023-01-07T09:08:48.213Z,98055.03
2023-01-07T09:11:18.386Z,98080.19
2023-01-07T09:13:47.575Z,98088.34
2023-01-07T09:16:16.348Z,98091.38
2023-01-07T09:18:44.904Z,98105.13
2023-01-07T09:21:13.747Z,98094.81
2023-01-07T09:23:42.389Z,98108.22
2023-01-07T09:26:11.533Z,98114.44
2023-01-07T09:28:41.908Z,98115.44
2023-01-07T09:31:10.413Z,98114.13
2023-01-07T09:33:41.085Z,98116.88
2023-01-07T09:36:10.210Z,98130.94
2023-01-07T09:38:38.393Z,98134.94
2023-01-07T09:41:17.388Z,98122.91
2023-01-07T09:43:59.501Z,98119.22
2023-01-07T09:46:31.596Z,98115.69
2023-01-07T09:49:05.043Z,98122.38
2023-01-07T09:51:39.504Z,98120.00
2023-01-07T09:54:19.167Z,98122.13
2023-01-07T09:56:48.670Z,98119.06
2023-01-07T09:59:21.222Z,98119.19
2023-01-07T10:02:00.689Z,98125.28
2023-01-07T10:04:42.643Z,98129.00
2023-01-07T10:07:23.144Z,98130.13
2023-01-07T10:10:04.345Z,98132.25
2023-01-07T10:12:44.861Z,98148.78
2023-01-07T10:15:26.447Z,98152.69
2023-01-07T10:18:14.477Z,98151.66
2023-01-07T10:20:51.128Z,98161.97
2023-01-07T10:23:26.526Z,98174.00
2023-01-07T10:25:57.425Z,98195.38
2023-01-07T10:28:36.904Z,98201.19
2023-01-07T10:31:08.392Z,98210.97
2023-01-07T10:33:38.466Z,98214.03
2023-01-07T10:36:22.506Z,98219.84
2023-01-07T10:38:59.994Z,98250.78
2023-01-07T10:41:37.475Z,98250.97
2023-01-07T10:44:26.627Z,98251.38
2023-01-07T10:47:08.416Z,98243.84
2023-01-07T10:49:56.315Z,98272.56
2023-01-07T10:52:42.641Z,98278.13
2023-01-07T10:55:28.974Z,98275.34
2023-01-07T10:57:57.843Z,98290.84
2023-01-07T11:00:27.554Z,98296.47
2023-01-07T11:03:02.697Z,98302.19
2023-01-07T11:05:38.236Z,98315.00
2023-01-07T11:08:16.161Z,98324.47
2023-01-07T11:14:01.577Z,98363.25
2023-01-07T11:16:38.467Z,98390.19
2023-01-07T11:19:11.253Z,98399.97
2023-01-07T11:21:44.364Z,98421.13
2023-01-07T11:24:32.158Z,98430.91
2023-01-07T11:27:04.370Z,98415.63
2023-01-07T11:29:39.212Z,98443.47
2023-01-07T11:32:16.789Z,98421.56
2023-01-07T11:34:56.703Z,98426.81
2023-01-07T11:37:38.825Z,98419.66
2023-01-07T11:40:21.862Z,98401.56
2023-01-07T11:42:53.071Z,98410.34
2023-01-07T11:45:22.871Z,98421.03
2023-01-07T11:47:59.089Z,98389.91
2023-01-07T11:50:34.522Z,98392.59
2023-01-07T11:53:09.880Z,98389.66
2023-01-07T11:55:38.124Z,98371.75
2023-01-07T11:58:29.620Z,98367.28
2023-01-07T12:01:06.648Z,98366.13
2023-01-07T12:03:35.562Z,98363.59
2023-01-07T12:06:10.219Z,98374.13
2023-01-07T12:08:41.987Z,98386.97
2023-01-07T12:11:14.526Z,98384.97
2023-01-07T12:13:48.802Z,98385.03
2023-01-07T12:16:18.065Z,98380.56
2023-01-07T12:19:05.781Z,98375.63
2023-01-07T12:21:39.108Z,98375.56
2023-01-07T12:24:31.365Z,98375.16
2023-01-07T12:27:08.686Z,98370.31
2023-01-07T12:29:53.427Z,98376.88
2023-01-07T12:32:33.356Z,98394.22
2023-01-07T12:35:14.640Z,98372.44
2023-01-07T12:37:50.282Z,98363.91
2023-01-07T12:40:28.823Z,98376.94
2023-01-07T12:43:04.074Z,98382.81
2023-01-07T12:45:40.684Z,98393.28
2023-01-07T12:48:20.808Z,98402.00
2023-01-07T12:50:54.849Z,98419.56
2023-01-07T12:53:34.411Z,98469.34
2023-01-07T12:56:06.617Z,98491.13
2023-01-07T12:58:45.149Z,98510.41
2023-01-07T13:01:23.760Z,98536.03
2023-01-07T13:04:04.739Z,98543.88
2023-01-07T13:06:45.060Z,98579.31
2023-01-07T13:09:28.578Z,98591.22
2023-01-07T13:12:41.543Z,98630.13
2023-01-07T13:15:17.071Z,98634.19
2023-01-07T13:17:45.577Z,98656.41
2023-01-07T13:20:15.576Z,98679.94
2023-01-07T13:22:47.676Z,98667.78
2023-01-07T13:25:33.060Z,98667.34
2023-01-07T13:28:21.888Z,98653.53
2023-01-07T13:31:08.565Z,98648.88
2023-01-07T13:33:45.588Z,98633.88
2023-01-07T13:36:25.479Z,98621.50
2023-01-07T13:39:18.101Z,98579.94
2023-01-07T13:42:05.610Z,98593.72
2023-01-07T13:44:51.906Z,98571.59
2023-01-07T13:47:23.486Z,98565.38
2023-01-07T13:49:57.583Z,98570.22
2023-01-07T13:52:28.713Z,98593.91
2023-01-07T13:54:59.362Z,98577.06
2023-01-07T13:57:46.181Z,98573.16
2023-01-07T14:00:43.447Z,98600.56
2023-01-07T14:03:41.240Z,98564.13
2023-01-07T14:06:40.048Z,98569.44
2023-01-07T14:09:28.810Z,98538.50
2023-01-07T14:12:33.555Z,98540.81
2023-01-07T14:15:40.871Z,98525.63
2023-01-07T14:18:53.507Z,98533.47
2023-01-07T14:21:52.872Z,98529.53
2023-01-07T14:24:50.716Z,98514.81
2023-01-07T14:27:45.391Z,98503.72
2023-01-07T14:30:22.127Z,98498.22
2023-01-07T14:32:59.904Z,98494.94
2023-01-07T14:35:35.261Z,98490.59
2023-01-07T14:38:23.785Z,98481.41
2023-01-07T14:41:07.821Z,98450.13
2023-01-07T14:43:50.431Z,98459.28
2023-01-07T14:46:47.930Z,98434.63
2023-01-07T14:49:53.960Z,98414.09
2023-01-07T14:52:40.276Z,98427.50
2023-01-07T14:55:43.675Z,98412.03
2023-01-07T14:58:30.321Z,98401.59
2023-01-07T15:01:26.069Z,98391.66
2023-01-07T15:04:10.971Z,98375.53
2023-01-07T15:06:41.234Z,98363.00
2023-01-07T15:09:37.642Z,98367.06
2023-01-07T15:12:27.222Z,98368.53
2023-01-07T15:15:23.824Z,98355.06
2023-01-07T15:17:52.036Z,98351.91
2023-01-07T15:20:20.529Z,98343.13
2023-01-07T15:23:06.064Z,98338.31
2023-01-07T15:25:47.448Z,98335.69
2023-01-07T15:28:22.839Z,98328.94
2023-01-07T15:30:59.693Z,98335.88
2023-01-07T15:33:40.783Z,98311.97
2023-01-07T15:36:13.903Z,98329.09
2023-01-07T15:38:46.593Z,98319.19
2023-01-07T15:41:33.374Z,98296.53
2023-01-07T15:44:05.383Z,98291.22
2023-01-07T15:46:42.197Z,98269.34
2023-01-07T15:49:21.891Z,98278.09
2023-01-07T15:51:53.446Z,98261.50
2023-01-07T15:54:27.474Z,98251.03
2023-01-07T15:57:00.414Z,98241.25
2023-01-07T15:59:31.451Z,98241.78
2023-01-07T16:02:14.873Z,98230.16
2023-01-07T16:04:44.281Z,98244.75
2023-01-07T16:07:22.747Z,98228.31
2023-01-07T16:09:51.788Z,98227.44
2023-01-07T16:12:36.338Z,98244.22
2023-01-07T16:15:22.364Z,98232.53
2023-01-07T16:17:54.200Z,98234.69
2023-01-07T16:20:27.160Z,98253.00
2023-01-07T16:23:18.689Z,98238.47
2023-01-07T16:25:50.415Z,98262.31
2023-01-07T16:28:22.780Z,98269.41
2023-01-07T16:30:52.911Z,98292.19
2023-01-07T16:33:24.223Z,98290.97
2023-01-07T16:35:56.616Z,98288.97
2023-01-07T16:38:25.489Z,98273.88
2023-01-07T16:40:54.018Z,98277.75
2023-01-07T16:43:44.508Z,98296.63
2023-01-07T16:46:23.531Z,98290.28
2023-01-07T16:49:27.118Z,98272.41
2023-01-07T16:52:05.330Z,98280.47
2023-01-07T16:54:37.222Z,98286.56
2023-01-07T16:57:08.229Z,98294.75
2023-01-07T16:59:42.090Z,98287.66
2023-01-07T17:02:29.329Z,98295.06
2023-01-07T17:05:10.724Z,98313.81
2023-01-07T17:07:39.990Z,98298.59
2023-01-07T17:10:09.077Z,98298.44
2023-01-07T17:12:40.218Z,98310.63
2023-01-07T17:15:36.488Z,98310.97
2023-01-07T17:18:27.824Z,98314.09
2023-01-07T17:20:57.846Z,98313.09
2023-01-07T17:23:45.609Z,98307.56
2023-01-07T17:26:23.053Z,98307.84
2023-01-07T17:28:53.810Z,98299.31
2023-01-07T17:31:24.740Z,98306.06
2023-01-07T17:33:53.778Z,98292.84
2023-01-07T17:36:23.853Z,98285.16
2023-01-07T17:38:52.280Z,98302.63
2023-01-07T17:41:39.268Z,98303.03
2023-01-07T17:44:11.589Z,98291.94
2023-01-07T17:46:42.161Z,98303.31
2023-01-07T17:49:11.394Z,98301.63
2023-01-07T17:51:41.836Z,98315.09
2023-01-07T17:54:19.781Z,98312.78
2023-01-07T17:56:48.430Z,98311.81
2023-01-07T17:59:17.380Z,98304.81
2023-01-07T18:01:47.244Z,98317.78
2023-01-07T18:04:15.443Z,98302.34
2023-01-07T18:06:44.370Z,98292.66
2023-01-07T18:09:13.724Z,98307.41
2023-01-07T18:12:03.569Z,98308.09
2023-01-07T18:14:32.533Z,98295.91
2023-01-07T18:17:02.184Z,98279.69
2023-01-07T18:19:30.190Z,98283.69
2023-01-07T18:21:58.329Z,98290.53
2023-01-07T18:24:26.372Z,98299.06
2023-01-07T18:26:56.409Z,98282.56
2023-01-07T18:29:24.944Z,98266.97
2023-01-07T18:31:53.086Z,98262.94
2023-01-07T18:34:23.344Z,98255.09
2023-01-07T18:36:51.863Z,98249.56
2023-01-07T18:39:20.786Z,98239.25
2023-01-07T18:41:50.518Z,98232.41
2023-01-07T18:44:18.990Z,98217.66
2023-01-07T18:46:47.613Z,98226.34
2023-01-07T18:49:16.832Z,98226.47
2023-01-07T18:51:49.141Z,98249.31
2023-01-07T18:54:20.334Z,98242.09
2023-01-07T18:56:49.386Z,98248.00
2023-01-07T18:59:18.485Z,98251.72
2023-01-07T19:01:49.896Z,98237.44
2023-01-07T19:04:22.762Z,98239.09
2023-01-07T19:06:53.329Z,98236.69
2023-01-07T19:09:23.294Z,98238.53
2023-01-07T19:11:53.499Z,98223.56
2023-01-07T19:14:26.836Z,98227.66
2023-01-07T19:16:57.974Z,98228.00
2023-01-07T19:19:34.265Z,98214.63
2023-01-07T19:22:16.550Z,98229.22
2023-01-07T19:24:46.239Z,98220.78
2023-01-07T19:27:14.468Z,98223.03
2023-01-07T19:29:42.864Z,98217.69
2023-01-07T19:32:11.069Z,98203.03
2023-01-07T19:34:39.363Z,98211.16
2023-01-07T19:37:07.986Z,98220.34
2023-01-07T19:39:40.033Z,98226.72
2023-01-07T19:42:10.192Z,98233.19
2023-01-07T19:44:41.849Z,98233.38
2023-01-07T19:47:11.099Z,98251.09
2023-01-07T19:49:42.719Z,98246.53
2023-01-07T19:52:11.903Z,98241.78
2023-01-07T19:54:42.557Z,98262.09
2023-01-07T19:57:11.367Z,98266.19
2023-01-07T19:59:39.625Z,98257.88
2023-01-07T20:02:09.223Z,98278.06
2023-01-07T20:04:40.306Z,98292.44
2023-01-07T20:07:09.316Z,98291.28
2023-01-07T20:09:41.425Z,98278.16
2023-01-07T20:12:15.196Z,98297.97
2023-01-07T20:14:45.191Z,98288.88
2023-01-07T20:17:13.351Z,98272.50
2023-01-07T20:19:41.454Z,98276.94
2023-01-07T20:22:11.030Z,98255.78
2023-01-07T20:24:39.147Z,98244.13
2023-01-07T20:27:07.196Z,98207.72
2023-01-07T20:29:37.105Z,98181.06
2023-01-07T20:32:08.345Z,98113.91
2023-01-07T20:34:37.551Z,98066.25
2023-01-07T20:37:09.528Z,98014.47
2023-01-07T20:39:38.088Z,97929.72
2023-01-07T20:42:09.944Z,97864.56
2023-01-07T20:44:41.586Z,97819.47
2023-01-07T20:47:10.113Z,97771.03
2023-01-07T20:49:38.499Z,97725.41
2023-01-07T20:52:10.505Z,97684.78
2023-01-07T20:54:39.479Z,97677.22
2023-01-07T20:57:08.562Z,97681.88
2023-01-07T20:59:37.071Z,97659.66
2023-01-07T21:02:07.569Z,97643.19
2023-01-07T21:04:37.173Z,97632.78
2023-01-07T21:07:05.452Z,97625.91
2023-01-07T21:09:34.346Z,97612.47
2023-01-07T21:12:05.978Z,97602.72
2023-01-07T21:14:35.578Z,97594.97
2023-01-07T21:17:04.396Z,97587.25
2023-01-07T21:19:37.260Z,97574.31
2023-01-07T21:22:06.417Z,97562.03
2023-01-07T21:24:35.683Z,97564.56
2023-01-07T21:27:03.718Z,97568.22
2023-01-07T21:29:32.526Z,97564.03
2023-01-07T21:32:03.074Z,97548.09
2023-01-07T21:34:32.863Z,97538.69
2023-01-07T21:37:02.978Z,97518.31
2023-01-07T21:39:32.227Z,97511.09
2023-01-07T21:42:02.481Z,97513.66
2023-01-07T21:44:31.013Z,97502.72
2023-01-07T21:47:02.847Z,97503.38
2023-01-07T21:49:35.647Z,97475.97
2023-01-07T21:52:07.133Z,97490.09
2023-01-07T21:54:36.707Z,97485.41
2023-01-07T21:57:10.586Z,97496.34
2023-01-07T21:59:38.829Z,97486.38
2023-01-07T22:02:07.771Z,97482.34
2023-01-07T22:04:40.583Z,97474.63
2023-01-07T22:07:15.110Z,97432.75
2023-01-07T22:09:44.289Z,97412.91
2023-01-07T22:12:16.517Z,97411.56
2023-01-07T22:14:46.656Z,97407.84
2023-01-07T22:17:16.461Z,97405.50
2023-01-07T22:19:45.523Z,97387.69
2023-01-07T22:22:19.685Z,97390.19
2023-01-07T22:24:49.119Z,97396.75
2023-01-07T22:27:19.136Z,97401.31
2023-01-07T22:29:51.258Z,97405.50
2023-01-07T22:32:19.462Z,97419.28
2023-01-07T22:34:49.628Z,97413.91
2023-01-07T22:37:27.063Z,97426.31
2023-01-07T22:40:00.886Z,97437.78
2023-01-07T22:42:36.147Z,97446.22
2023-01-07T22:45:11.020Z,97452.44
2023-01-07T22:47:44.538Z,97455.44
2023-01-07T22:50:15.328Z,97476.47
2023-01-07T22:52:45.394Z,97479.50
2023-01-07T22:55:14.469Z,97500.03
2023-01-07T22:57:43.240Z,97501.88
2023-01-07T23:00:18.787Z,97516.19
2023-01-07T23:02:46.879Z,97530.31
2023-01-07T23:05:15.172Z,97534.38
2023-01-07T23:07:45.127Z,97512.47
2023-01-07T23:10:13.311Z,97520.22
2023-01-07T23:12:41.281Z,97521.06
2023-01-07T23:15:09.928Z,97500.03
2023-01-07T23:17:38.256Z,97490.63
2023-01-07T23:20:07.439Z,97507.09
2023-01-07T23:22:35.530Z,97490.28
2023-01-07T23:25:06.059Z,97467.91
2023-01-07T23:27:34.122Z,97461.84
2023-01-07T23:30:02.427Z,97451.91
2023-01-07T23:32:30.410Z,97456.31
2023-01-07T23:34:58.541Z,97449.19
2023-01-07T23:37:27.004Z,97451.91
2023-01-07T23:39:55.049Z,97458.16
2023-01-07T23:42:24.597Z,97443.16
2023-01-07T23:44:52.644Z,97459.00
2023-01-07T23:47:20.762Z,97447.19
2023-01-07T23:49:48.888Z,97455.25
2023-01-07T23:52:17.545Z,97449.88
2023-01-07T23:54:45.505Z,97445.84
2023-01-07T23:57:13.531Z,97455.44
2023-01-07T23:59:43.834Z,97433.03
